Time;durP1;ratioP1;P1;durP2;ratioP2;P2;SDS_P1;SDS_P2;PMS_P1;PMS_P2;Temp;Humidity;BMP_temperature;BMP_pressure;BME280_temperature;BME280_humidity;BME280_pressure;Samples;Min_cycle;Max_cycle;Signal;HPM_P1;HPM_P2
2023/03/21 00:01:54;;;;;;;4.32;3.92;;;22.30;36.50;;;;;;5091987;28;20093;-61
2023/03/21 00:04:23;;;;;;;6.22;4.38;;;22.30;36.50;;;;;;5093087;28;20048;-61
2023/03/21 00:06:50;;;;;;;5.72;4.65;;;22.30;36.50;;;;;;5091487;28;20094;-61
2023/03/21 00:09:18;;;;;;;4.65;4.05;;;22.30;36.50;;;;;;5093356;28;20040;-61
2023/03/21 00:11:45;;;;;;;6.07;4.22;;;22.30;36.50;;;;;;5091562;28;20040;-61
2023/03/21 00:14:17;;;;;;;5.78;4.20;;;22.30;36.50;;;;;;5091777;28;20138;-61
2023/03/21 00:16:49;;;;;;;5.20;4.22;;;22.30;36.50;;;;;;5092190;28;20400;-61
2023/03/21 00:19:19;;;;;;;5.28;4.15;;;22.30;36.50;;;;;;5091996;28;20060;-61
2023/03/21 00:21:50;;;;;;;4.57;4.15;;;22.30;36.50;;;;;;5092750;28;20066;-61
2023/03/21 00:24:35;;;;;;;5.15;4.55;;;22.20;36.50;;;;;;5093276;28;20052;-61
2023/03/21 00:27:03;;;;;;;4.63;4.10;;;22.20;36.50;;;;;;5092094;28;20129;-61
2023/03/21 00:29:51;;;;;;;6.75;5.28;;;22.20;36.50;;;;;;5091696;28;20040;-61
2023/03/21 00:32:20;;;;;;;5.18;4.57;;;22.30;37.10;;;;;;5091620;28;20075;-61
2023/03/21 00:34:48;;;;;;;5.28;4.68;;;22.30;36.50;;;;;;5092505;28;20067;-61
2023/03/21 00:37:30;;;;;;;5.68;4.38;;;22.20;36.50;;;;;;5096141;28;20060;-61
2023/03/21 00:39:58;;;;;;;4.50;4.10;;;22.30;36.50;;;;;;5096795;28;20415;-61
2023/03/21 00:42:25;;;;;;;6.03;4.43;;;22.20;36.40;;;;;;5094847;28;20047;-61
2023/03/21 00:44:52;;;;;;;7.07;4.25;;;22.20;36.40;;;;;;5095886;28;20482;-61
2023/03/21 00:47:19;;;;;;;4.78;4.28;;;22.30;36.50;;;;;;5095303;28;20047;-61
2023/03/21 00:49:46;;;;;;;5.38;4.32;;;22.30;36.50;;;;;;5096450;28;20048;-61
2023/03/21 00:52:13;;;;;;;5.28;4.72;;;22.20;36.40;;;;;;5095400;28;20070;-61
2023/03/21 00:54:53;;;;;;;6.95;5.15;;;22.30;36.50;;;;;;5094704;28;20048;-61
2023/03/21 00:57:20;;;;;;;5.60;4.28;;;22.20;36.90;;;;;;5095472;28;20055;-61
2023/03/21 01:00:03;;;;;;;5.32;4.43;;;22.30;36.50;;;;;;5092885;28;20043;-61
2023/03/21 01:02:30;;;;;;;4.22;3.83;;;22.20;36.40;;;;;;5071316;28;20044;-61
2023/03/21 01:04:57;;;;;;;5.53;4.70;;;22.20;37.00;;;;;;5074910;28;20048;-61
2023/03/21 01:07:24;;;;;;;6.40;3.92;;;22.20;36.40;;;;;;5075033;28;20044;-61
2023/03/21 01:09:51;;;;;;;4.68;4.18;;;22.20;36.40;;;;;;5074902;28;20519;-61
2023/03/21 01:12:19;;;;;;;5.03;4.40;;;22.20;36.40;;;;;;5074855;28;20056;-61
2023/03/21 01:14:46;;;;;;;7.13;4.93;;;22.20;36.40;;;;;;5091342;28;20506;-61
2023/03/21 01:17:13;;;;;;;4.95;3.97;;;22.20;36.40;;;;;;5094922;28;20134;-61
2023/03/21 01:19:40;;;;;;;4.75;3.92;;;22.20;36.40;;;;;;5095160;28;20050;-61
2023/03/21 01:22:17;;;;;;;5.20;4.40;;;22.20;36.40;;;;;;5095747;28;20047;-61
2023/03/21 01:24:44;;;;;;;6.43;4.97;;;22.20;36.40;;;;;;5095085;28;20048;-61
2023/03/21 01:27:22;;;;;;;5.72;4.25;;;22.20;36.40;;;;;;5094977;28;20117;-61
2023/03/21 01:29:49;;;;;;;5.57;4.25;;;22.20;36.40;;;;;;5095307;28;20084;-61
2023/03/21 01:32:16;;;;;;;4.80;4.13;;;22.20;36.50;;;;;;5095760;28;20084;-61
2023/03/21 01:34:44;;;;;;;4.97;4.30;;;22.20;36.40;;;;;;5095504;28;20127;-61
2023/03/21 01:37:11;;;;;;;4.75;4.22;;;22.20;36.50;;;;;;5094745;28;20126;-61
2023/03/21 01:39:38;;;;;;;6.63;4.35;;;22.10;36.40;;;;;;5093622;28;20052;-61
2023/03/21 01:42:05;;;;;;;6.07;4.60;;;22.10;36.40;;;;;;5094808;28;20044;-61
2023/03/21 01:44:56;;;;;;;5.30;3.90;;;22.10;36.40;;;;;;5095936;28;20407;-61
2023/03/21 01:47:24;;;;;;;5.00;4.50;;;22.10;36.40;;;;;;5094022;28;20422;-61
2023/03/21 01:49:56;;;;;;;7.40;4.10;;;22.10;36.90;;;;;;5089039;28;20189;-61
2023/03/21 01:52:31;;;;;;;5.53;4.32;;;22.10;36.40;;;;;;5074392;28;20087;-61
2023/03/21 01:55:10;;;;;;;6.15;3.92;;;22.10;36.40;;;;;;5074692;28;20049;-61
2023/03/21 01:57:43;;;;;;;4.38;3.97;;;22.10;36.90;;;;;;5074168;28;20059;-62
2023/03/21 02:00:28;;;;;;;4.55;4.07;;;22.10;36.40;;;;;;5074443;28;20076;-61
2023/03/21 02:02:56;;;;;;;4.85;3.83;;;22.10;36.40;;;;;;5085911;28;20407;-61
2023/03/21 02:05:50;;;;;;;4.07;3.65;;;22.10;36.40;;;;;;5093684;28;20058;-61
2023/03/21 02:08:17;;;;;;;5.20;4.25;;;22.10;36.40;;;;;;5094238;28;20131;-62
2023/03/21 02:10:49;;;;;;;5.63;4.32;;;22.00;36.40;;;;;;5094345;28;20109;-61
2023/03/21 02:13:16;;;;;;;5.10;4.45;;;22.10;36.40;;;;;;5093990;28;20044;-62
2023/03/21 02:15:58;;;;;;;3.92;3.47;;;22.00;36.40;;;;;;5093733;28;20051;-62
2023/03/21 02:18:56;;;;;;;4.65;3.85;;;22.00;36.40;;;;;;5094208;28;20138;-62
2023/03/21 02:22:00;;;;;;;4.43;3.97;;;22.00;36.40;;;;;;5093085;28;20139;-62
2023/03/21 02:24:58;;;;;;;5.30;4.20;;;22.00;36.40;;;;;;5094060;28;20048;-62
2023/03/21 02:27:45;;;;;;;4.90;4.47;;;22.00;36.40;;;;;;5093239;28;20079;-62
2023/03/21 02:30:40;;;;;;;4.07;3.78;;;22.00;36.30;;;;;;5093969;28;20174;-61
2023/03/21 02:33:57;;;;;;;4.82;4.07;;;22.00;36.30;;;;;;5093152;28;20047;-62
2023/03/21 02:36:51;;;;;;;4.15;3.70;;;22.00;36.30;;;;;;5094118;28;20058;-62
2023/03/21 02:39:41;;;;;;;5.13;3.72;;;22.00;36.30;;;;;;5093524;28;20082;-62
2023/03/21 02:42:36;;;;;;;4.47;4.03;;;22.00;36.30;;;;;;5092950;28;20048;-62
2023/03/21 02:45:20;;;;;;;7.07;4.00;;;22.00;36.30;;;;;;5093652;28;20052;-62
2023/03/21 02:47:56;;;;;;;5.28;3.97;;;22.10;36.30;;;;;;5093448;28;20134;-61
2023/03/21 02:50:32;;;;;;;3.83;3.33;;;22.00;36.30;;;;;;5093339;28;20060;-62
2023/03/21 02:53:03;;;;;;;4.80;3.90;;;22.10;36.30;;;;;;5093305;28;20145;-62
2023/03/21 02:55:33;;;;;;;4.03;3.63;;;22.00;36.20;;;;;;5092817;28;20135;-62
2023/03/21 02:58:00;;;;;;;;;;;22.00;36.20;;;;;;5093768;28;20048;-61
2023/03/21 03:00:42;;;;;;;4.68;3.75;;;22.00;36.20;;;;;;5094244;28;19927;-61
2023/03/21 03:03:11;;;;;;;4.55;3.92;;;22.10;36.30;;;;;;5092128;28;20071;-61
2023/03/21 03:05:57;;;;;;;4.10;3.70;;;22.00;36.20;;;;;;5092772;28;20048;-62
2023/03/21 03:08:37;;;;;;;5.50;4.38;;;22.00;36.20;;;;;;5093715;28;20138;-62
2023/03/21 03:11:30;;;;;;;3.55;3.20;;;22.10;36.30;;;;;;5093864;28;20577;-62
2023/03/21 03:14:32;;;;;;;5.50;4.20;;;22.00;36.20;;;;;;5092479;28;20048;-61
2023/03/21 03:17:36;;;;;;;4.95;4.07;;;22.00;36.20;;;;;;5092370;28;20048;-61
2023/03/21 03:20:32;;;;;;;5.07;4.15;;;22.00;36.20;;;;;;5091688;28;20127;-62
2023/03/21 03:23:32;;;;;;;5.82;4.18;;;22.00;36.80;;;;;;5092854;28;20132;-61
2023/03/21 03:26:11;;;;;;;5.25;4.20;;;22.00;36.20;;;;;;5092591;28;20131;-62
2023/03/21 03:28:43;;;;;;;5.68;3.90;;;22.00;36.20;;;;;;5092700;28;20127;-62
2023/03/21 03:31:13;;;;;;;4.20;3.83;;;22.00;36.20;;;;;;5093491;28;20134;-62
2023/03/21 03:33:47;;;;;;;6.90;3.55;;;22.00;36.30;;;;;;5092227;28;20052;-62
2023/03/21 03:36:17;;;;;;;6.53;4.03;;;22.00;36.20;;;;;;5092280;28;20485;-62
2023/03/21 03:39:03;;;;;;;4.40;4.00;;;22.00;36.20;;;;;;5092947;28;20060;-62
2023/03/21 03:41:32;;;;;;;4.20;3.42;;;21.90;36.20;;;;;;5083962;28;20131;-62
2023/03/21 03:44:20;;;;;;;4.47;4.00;;;22.00;36.30;;;;;;5090924;28;20400;-62
2023/03/21 03:46:57;;;;;;;5.00;3.95;;;22.00;36.20;;;;;;5093062;28;20048;-62
2023/03/21 03:49:28;;;;;;;4.20;3.80;;;22.00;36.20;;;;;;5092930;28;20487;-61
2023/03/21 03:52:07;;;;;;;4.97;3.78;;;22.00;36.20;;;;;;5093105;28;20048;-62
2023/03/21 03:54:42;;;;;;;4.07;3.40;;;22.00;36.20;;;;;;5093037;28;20052;-62
2023/03/21 03:57:11;;;;;;;4.40;3.83;;;22.00;36.20;;;;;;5093436;28;20047;-62
2023/03/21 03:59:40;;;;;;;4.30;3.78;;;22.00;36.80;;;;;;5093065;28;20056;-62
2023/03/21 04:02:07;;;;;;;6.43;3.80;;;21.90;36.20;;;;;;5092167;28;20154;-62
2023/03/21 04:04:35;;;;;;;4.30;3.33;;;21.90;36.20;;;;;;5093090;28;20083;-62
2023/03/21 04:07:05;;;;;;;4.70;3.55;;;21.90;36.20;;;;;;5092237;28;20135;-62
2023/03/21 04:09:32;;;;;;;5.30;4.17;;;21.90;36.20;;;;;;5092243;28;20044;-62
2023/03/21 04:12:11;;;;;;;5.60;3.80;;;21.90;36.20;;;;;;5076581;28;20051;-62
2023/03/21 04:14:39;;;;;;;4.82;3.60;;;21.90;36.20;;;;;;5076331;28;20052;-62
2023/03/21 04:17:13;;;;;;;3.95;3.45;;;21.90;36.20;;;;;;5076917;28;20049;-62
2023/03/21 04:19:40;;;;;;;3.95;3.65;;;21.90;36.20;;;;;;5076658;28;20123;-62
2023/03/21 04:22:07;;;;;;;5.57;3.30;;;21.90;36.20;;;;;;5075278;28;20059;-61
2023/03/21 04:24:36;;;;;;;4.78;3.88;;;21.90;36.20;;;;;;5075938;28;20048;-62
2023/03/21 04:27:04;;;;;;;4.00;3.53;;;21.90;36.20;;;;;;5078151;28;20052;-62
2023/03/21 04:29:32;;;;;;;5.43;3.90;;;21.90;36.20;;;;;;5091036;28;20083;-62
2023/03/21 04:32:00;;;;;;;5.82;3.28;;;21.90;36.20;;;;;;5089911;28;20048;-61
2023/03/21 04:34:27;;;;;;;5.65;3.42;;;21.90;36.20;;;;;;5096505;28;20052;-62
2023/03/21 04:36:55;;;;;;;4.00;3.45;;;21.90;36.20;;;;;;5092330;28;20442;-62
2023/03/21 04:39:23;;;;;;;4.60;3.17;;;21.90;36.20;;;;;;5083737;28;20087;-62
2023/03/21 04:41:50;;;;;;;3.88;3.55;;;21.90;36.20;;;;;;5075309;28;20055;-61
2023/03/21 04:44:18;;;;;;;3.90;3.40;;;21.90;36.20;;;;;;5076304;28;20053;-62
2023/03/21 04:46:45;;;;;;;4.20;3.80;;;21.90;36.20;;;;;;5088154;28;20050;-62
2023/03/21 04:49:12;;;;;;;3.60;3.17;;;21.90;36.20;;;;;;5094327;28;20040;-62
2023/03/21 04:51:42;;;;;;;4.90;3.25;;;21.90;36.20;;;;;;5094500;28;20075;-62
2023/03/21 04:54:12;;;;;;;4.40;3.37;;;21.90;36.20;;;;;;5092445;28;20043;-62
2023/03/21 04:56:39;;;;;;;4.95;3.90;;;21.90;36.20;;;;;;5094627;28;20051;-62
2023/03/21 04:59:11;;;;;;;3.92;3.20;;;21.90;36.10;;;;;;5092833;28;20131;-61
2023/03/21 05:01:40;;;;;;;5.45;3.67;;;21.90;36.10;;;;;;5074743;28;20449;-61
2023/03/21 05:04:07;;;;;;;5.03;3.35;;;21.90;36.10;;;;;;5075012;28;20059;-61
2023/03/21 05:06:35;;;;;;;3.25;2.95;;;21.90;36.10;;;;;;5074783;28;20218;-62
2023/03/21 05:09:07;;;;;;;3.75;3.20;;;21.90;36.10;;;;;;5080616;28;20074;-62
2023/03/21 05:11:36;;;;;;;4.95;3.60;;;21.90;36.00;;;;;;5093144;28;20040;-61
2023/03/21 05:14:05;;;;;;;5.95;4.03;;;21.90;36.00;;;;;;5091863;28;20048;-62
2023/03/21 05:16:35;;;;;;;4.90;3.42;;;21.90;36.00;;;;;;5094077;28;20052;-61
2023/03/21 05:19:02;;;;;;;3.97;3.33;;;21.90;36.00;;;;;;5095291;28;20495;-62
2023/03/21 05:21:42;;;;;;;4.63;3.53;;;21.90;36.00;;;;;;5092454;28;20246;-61
2023/03/21 05:24:13;;;;;;;4.15;3.50;;;21.90;36.00;;;;;;5089878;28;20048;-61
2023/03/21 05:26:43;;;;;;;4.50;2.83;;;21.90;36.00;;;;;;5088101;28;20044;-61
2023/03/21 05:29:10;;;;;;;3.95;3.40;;;21.90;36.00;;;;;;5089335;28;20044;-61
2023/03/21 05:31:37;;;;;;;3.33;2.92;;;22.00;36.00;;;;;;5092611;28;20484;-61
2023/03/21 05:34:04;;;;;;;5.57;3.90;;;21.90;35.90;;;;;;5091826;28;20510;-61
2023/03/21 05:36:34;;;;;;;5.28;3.28;;;21.90;35.80;;;;;;5094562;28;20044;-61
2023/03/21 05:39:02;;;;;;;4.03;3.67;;;21.90;35.70;;;;;;5096047;28;20466;-62
2023/03/21 05:41:29;;;;;;;6.40;3.63;;;21.90;35.60;;;;;;5092245;28;20040;-61
2023/03/21 05:43:57;;;;;;;5.32;4.00;;;21.90;35.60;;;;;;5082569;28;20071;-62
2023/03/21 05:46:24;;;;;;;6.07;4.65;;;21.90;35.70;;;;;;5091562;28;20058;-61
2023/03/21 05:48:51;;;;;;;5.53;3.58;;;21.90;35.70;;;;;;5092177;28;20094;-62
2023/03/21 05:51:18;;;;;;;5.63;4.20;;;21.90;35.80;;;;;;5086249;28;20052;-61
2023/03/21 05:53:45;;;;;;;5.32;4.55;;;21.90;35.70;;;;;;5093669;28;20419;-61
2023/03/21 05:56:12;;;;;;;5.38;3.78;;;21.90;35.70;;;;;;5086681;28;20040;-61
2023/03/21 05:58:39;;;;;;;3.90;3.50;;;22.00;35.70;;;;;;5091531;28;20059;-61
2023/03/21 06:01:07;;;;;;;4.32;3.90;;;22.00;35.80;;;;;;5091336;28;20105;-61
2023/03/21 06:03:34;;;;;;;6.10;3.63;;;22.00;35.50;;;;;;5091066;28;20051;-61
2023/03/21 06:06:02;;;;;;;4.10;3.60;;;22.00;35.50;;;;;;5094494;28;20044;-61
2023/03/21 06:08:30;;;;;;;4.72;3.70;;;22.10;35.50;;;;;;5080179;28;20079;-60
2023/03/21 06:10:57;;;;;;;4.25;3.75;;;22.10;35.40;;;;;;5084896;28;20044;-62
2023/03/21 06:13:24;;;;;;;4.65;3.38;;;22.20;35.90;;;;;;5093697;28;20245;-62
2023/03/21 06:15:52;;;;;;;4.47;4.05;;;22.30;35.30;;;;;;5091455;28;20131;-61
2023/03/21 06:18:20;;;;;;;5.35;4.28;;;22.30;35.20;;;;;;5085255;28;20048;-61
2023/03/21 06:20:47;;;;;;;5.13;4.13;;;22.30;35.10;;;;;;5086593;28;20060;-59
2023/03/21 06:23:14;;;;;;;6.68;4.45;;;22.40;35.10;;;;;;5080548;28;20047;-60
2023/03/21 06:25:41;;;;;;;4.72;4.18;;;22.40;35.00;;;;;;5081341;28;20130;-63
2023/03/21 06:28:09;;;;;;;4.78;4.28;;;22.50;35.00;;;;;;5087059;28;20587;-62
2023/03/21 06:30:36;;;;;;;4.53;3.90;;;22.50;35.00;;;;;;5079698;28;20154;-61
2023/03/21 06:33:04;;;;;;;6.18;4.85;;;22.60;35.00;;;;;;5080547;28;20044;-61
2023/03/21 06:35:31;;;;;;;6.63;4.20;;;22.60;35.00;;;;;;5086587;28;20567;-60
2023/03/21 06:37:58;;;;;;;7.05;5.13;;;22.70;35.00;;;;;;5078531;28;20044;-60
2023/03/21 06:40:25;;;;;;;8.18;4.85;;;22.80;34.90;;;;;;5077601;28;20058;-61
2023/03/21 06:42:55;;;;;;;5.22;4.28;;;22.80;34.80;;;;;;5078365;28;20131;-58
2023/03/21 06:45:24;;;;;;;;;;;22.80;34.80;;;;;;5081527;28;20060;-59
2023/03/21 06:47:51;;;;;;;7.22;4.95;;;23.00;35.00;;;;;;5078444;28;19989;-59
2023/03/21 06:50:18;;;;;;;5.10;4.38;;;23.00;35.30;;;;;;5079933;28;20049;-58
2023/03/21 06:52:45;;;;;;;6.53;4.60;;;23.00;35.50;;;;;;5075163;28;20083;-60
2023/03/21 06:55:13;;;;;;;4.90;4.40;;;23.10;35.70;;;;;;5085618;28;20450;-60
2023/03/21 06:57:40;;;;;;;6.78;5.10;;;23.10;35.60;;;;;;5074727;28;20105;-60
2023/03/21 07:00:08;;;;;;;5.22;4.40;;;23.10;35.60;;;;;;5076040;28;20047;-60
2023/03/21 07:02:37;;;;;;;4.47;3.95;;;23.20;35.60;;;;;;5079977;28;20055;-59
2023/03/21 07:05:05;;;;;;;6.22;4.30;;;23.30;35.40;;;;;;5082280;28;20439;-59
2023/03/21 07:07:33;;;;;;;7.03;4.65;;;23.30;35.30;;;;;;5076340;28;20047;-59
2023/03/21 07:10:00;;;;;;;4.72;4.32;;;23.40;35.20;;;;;;5084221;28;20127;-59
2023/03/21 07:12:27;;;;;;;5.45;4.75;;;23.40;35.10;;;;;;5077153;28;20809;-58
2023/03/21 07:14:55;;;;;;;6.22;5.10;;;23.40;35.00;;;;;;5079188;28;20130;-59
2023/03/21 07:17:22;;;;;;;5.47;4.40;;;23.50;35.00;;;;;;5076518;28;20481;-58
2023/03/21 07:19:49;;;;;;;6.82;4.25;;;23.50;35.00;;;;;;5077310;28;20494;-58
2023/03/21 07:22:17;;;;;;;5.60;4.22;;;23.60;35.10;;;;;;5079866;28;20048;-57
2023/03/21 07:24:47;;;;;;;5.20;4.43;;;23.60;35.30;;;;;;5081703;28;20044;-58
2023/03/21 07:27:28;;;;;;;5.90;4.25;;;23.70;35.30;;;;;;5079961;28;20105;-59
2023/03/21 07:29:56;;;;;;;5.82;4.15;;;23.70;35.20;;;;;;5083364;28;20082;-61
2023/03/21 07:32:23;;;;;;;5.95;4.30;;;23.80;35.70;;;;;;5078410;28;20056;-61
2023/03/21 07:34:50;;;;;;;7.60;4.35;;;23.80;35.10;;;;;;5081526;28;20040;-62
2023/03/21 07:37:17;;;;;;;6.68;3.97;;;23.90;35.00;;;;;;5081454;28;20121;-63
2023/03/21 07:39:44;;;;;;;4.60;3.83;;;23.90;35.00;;;;;;5080400;28;20561;-62
2023/03/21 07:42:12;;;;;;;6.07;3.92;;;24.00;35.20;;;;;;5079809;28;20131;-61
2023/03/21 07:44:39;;;;;;;5.35;3.78;;;24.00;35.40;;;;;;5081540;28;20488;-61
2023/03/21 07:47:06;;;;;;;7.10;4.38;;;24.00;35.50;;;;;;5078763;28;20040;-62
2023/03/21 07:49:33;;;;;;;4.55;3.80;;;24.10;35.70;;;;;;5073620;28;20051;-61
2023/03/21 07:52:01;;;;;;;6.22;4.30;;;24.10;35.70;;;;;;5070286;28;20048;-60
2023/03/21 07:54:31;;;;;;;5.10;4.28;;;24.10;35.70;;;;;;5071638;28;20559;-61
2023/03/21 07:56:58;;;;;;;4.93;3.67;;;24.20;35.70;;;;;;5083966;28;20075;-61
2023/03/21 07:59:25;;;;;;;5.43;3.72;;;24.20;35.60;;;;;;5078992;28;20114;-61
2023/03/21 08:01:53;;;;;;;6.95;3.75;;;24.30;35.60;;;;;;5081424;28;20052;-62
2023/03/21 08:04:21;;;;;;;4.30;3.35;;;24.30;35.60;;;;;;5082105;28;20044;-60
2023/03/21 08:06:50;;;;;;;3.35;3.05;;;24.30;35.60;;;;;;5080853;28;20048;-60
2023/03/21 08:09:17;;;;;;;5.90;3.17;;;24.40;35.60;;;;;;5087385;28;20044;-59
2023/03/21 08:11:44;;;;;;;7.25;3.70;;;24.50;35.50;;;;;;5083122;28;20079;-59
2023/03/21 08:14:11;;;;;;;5.45;2.97;;;24.50;35.40;;;;;;5079452;28;20054;-63
2023/03/21 08:16:38;;;;;;;5.18;3.30;;;24.50;35.10;;;;;;5082941;28;20044;-61
2023/03/21 08:19:06;;;;;;;4.13;3.10;;;24.60;34.80;;;;;;5084765;28;20055;-61
2023/03/21 08:21:33;;;;;;;4.25;3.30;;;24.70;34.80;;;;;;5077519;28;20135;-60
2023/03/21 08:24:00;;;;;;;5.93;3.00;;;24.70;34.70;;;;;;5080729;28;20044;-60
2023/03/21 08:26:27;;;;;;;4.00;2.75;;;24.80;34.80;;;;;;5081053;28;20040;-60
2023/03/21 08:28:54;;;;;;;2.70;2.40;;;24.80;33.40;;;;;;5083100;28;20093;-60
2023/03/21 08:31:22;;;;;;;2.78;2.00;;;24.80;33.90;;;;;;5081443;28;20036;-59
2023/03/21 08:33:53;;;;;;;3.58;2.55;;;24.80;34.10;;;;;;5082291;28;20056;-60
2023/03/21 08:36:24;;;;;;;2.40;2.13;;;24.80;34.20;;;;;;5080574;28;20079;-60
2023/03/21 08:38:55;;;;;;;3.40;2.35;;;24.90;34.30;;;;;;5082181;28;20052;-60
2023/03/21 08:41:24;;;;;;;2.65;2.13;;;24.90;34.30;;;;;;5081521;28;20048;-60
2023/03/21 08:43:52;;;;;;;2.58;2.25;;;25.00;34.30;;;;;;5084022;28;20044;-60
2023/03/21 08:46:19;;;;;;;5.25;2.10;;;25.10;34.90;;;;;;5081583;28;20040;-61
2023/03/21 08:48:46;;;;;;;2.83;2.42;;;25.10;34.20;;;;;;5075847;28;20493;-60
2023/03/21 08:51:13;;;;;;;3.35;2.33;;;25.10;34.10;;;;;;5076921;28;20466;-60
2023/03/21 08:53:42;;;;;;;3.63;2.78;;;25.10;34.10;;;;;;5073684;28;20056;-59
2023/03/21 08:56:10;;;;;;;2.75;2.30;;;25.20;34.00;;;;;;5079811;28;20459;-59
2023/03/21 08:58:38;;;;;;;2.45;2.22;;;25.20;33.90;;;;;;5078892;28;20147;-60
2023/03/21 09:01:10;;;;;;;5.35;2.63;;;25.30;34.00;;;;;;5081733;28;20050;-60
2023/03/21 09:03:37;;;;;;;3.72;2.58;;;25.30;33.90;;;;;;5088074;28;20098;-60
2023/03/21 09:06:05;;;;;;;3.35;2.35;;;25.30;33.90;;;;;;5079652;28;20159;-59
2023/03/21 09:08:32;;;;;;;4.68;2.47;;;25.40;33.90;;;;;;5084929;28;20048;-60
2023/03/21 09:10:59;;;;;;;3.33;2.03;;;25.40;33.90;;;;;;5081053;28;20040;-61
2023/03/21 09:13:27;;;;;;;2.70;2.40;;;25.40;33.90;;;;;;5082137;28;20062;-61
2023/03/21 09:16:00;;;;;;;2.50;2.30;;;25.40;33.70;;;;;;5081662;28;20045;-60
2023/03/21 09:18:44;;;;;;;3.20;2.42;;;25.40;33.70;;;;;;5087723;28;20051;-60
2023/03/21 09:21:13;;;;;;;2.45;1.92;;;25.40;33.70;;;;;;5084762;28;20131;-62
2023/03/21 09:23:41;;;;;;;4.20;1.88;;;25.40;33.70;;;;;;5085031;28;20059;-61
2023/03/21 09:26:08;;;;;;;1.70;1.60;;;25.40;33.80;;;;;;5087021;28;20043;-61
2023/03/21 09:28:37;;;;;;;3.67;1.80;;;25.50;33.70;;;;;;5081073;28;20056;-61
2023/03/21 09:31:07;;;;;;;2.50;1.98;;;25.40;33.70;;;;;;5081059;28;21095;-61
2023/03/21 09:33:34;;;;;;;2.47;2.17;;;25.50;33.80;;;;;;5080451;28;20052;-61
2023/03/21 09:36:08;;;;;;;6.40;2.15;;;25.50;33.70;;;;;;5083423;28;20059;-62
2023/03/21 09:38:41;;;;;;;2.70;1.65;;;25.50;33.70;;;;;;5082008;28;20055;-59
2023/03/21 09:41:28;;;;;;;;;;;25.50;33.70;;;;;;5076461;28;20043;-60
2023/03/21 09:44:30;;;;;;;1.67;1.58;;;25.50;33.60;;;;;;5084201;28;20538;-62
2023/03/21 09:47:23;;;;;;;3.40;1.80;;;25.50;33.60;;;;;;5081416;28;20536;-60
2023/03/21 09:50:09;;;;;;;3.15;2.38;;;25.50;33.70;;;;;;5082456;28;20058;-60
2023/03/21 09:53:18;;;;;;;1.77;1.65;;;25.40;33.50;;;;;;5081318;28;20060;-60
2023/03/21 09:55:45;;;;;;;1.30;1.20;;;25.40;33.60;;;;;;5081268;28;20492;-60
2023/03/21 09:58:31;;;;;;;2.25;1.67;;;25.40;33.60;;;;;;5082244;28;20234;-61
2023/03/21 10:01:09;;;;;;;1.67;1.50;;;25.40;33.60;;;;;;5084113;28;20083;-61
2023/03/21 10:03:37;;;;;;;1.90;1.80;;;25.40;33.60;;;;;;5080829;28;20500;-62
2023/03/21 10:06:12;;;;;;;1.75;1.30;;;25.40;33.60;;;;;;5079702;28;20145;-62
2023/03/21 10:08:42;;;;;;;2.15;1.70;;;25.40;33.70;;;;;;5079967;28;20050;-62
2023/03/21 10:11:12;;;;;;;;;;;25.50;33.60;;;;;;5084308;28;20132;-64
2023/03/21 10:13:46;;;;;;;2.10;1.17;;;25.40;33.50;;;;;;5086068;28;19967;-62
2023/03/21 10:16:16;;;;;;;1.58;1.48;;;25.40;33.50;;;;;;5077680;28;20047;-62
2023/03/21 10:18:45;;;;;;;1.60;1.20;;;25.50;33.50;;;;;;5077122;28;20056;-62
2023/03/21 10:21:23;;;;;;;0.98;0.98;;;25.50;33.80;;;;;;5085630;28;20132;-60
2023/03/21 10:24:17;;;;;;;3.00;1.20;;;25.50;34.00;;;;;;5082791;28;20048;-61
2023/03/21 10:26:46;;;;;;;2.00;1.33;;;25.50;34.00;;;;;;5082100;28;20416;-61
2023/03/21 10:29:17;;;;;;;4.03;1.70;;;25.60;34.00;;;;;;5081373;28;20055;-61
2023/03/21 10:31:46;;;;;;;4.78;1.42;;;25.60;34.00;;;;;;5082082;28;20420;-61
2023/03/21 10:34:26;;;;;;;3.92;1.13;;;25.60;33.90;;;;;;5081814;28;20693;-61
2023/03/21 10:36:53;;;;;;;1.55;1.42;;;25.70;34.10;;;;;;5076538;28;21265;-63
2023/03/21 10:39:33;;;;;;;1.55;1.38;;;25.70;33.90;;;;;;5076464;28;20048;-62
2023/03/21 10:42:01;;;;;;;1.20;1.10;;;25.70;33.80;;;;;;5080837;28;20056;-63
2023/03/21 10:44:30;;;;;;;1.05;1.05;;;25.70;33.70;;;;;;5080028;28;20146;-62
2023/03/21 10:47:05;;;;;;;1.17;1.15;;;25.70;33.60;;;;;;5076016;28;20702;-63
2023/03/21 10:49:39;;;;;;;1.92;1.30;;;25.70;33.50;;;;;;5079661;28;20048;-67
2023/03/21 10:52:32;;;;;;;4.05;1.13;;;25.70;33.60;;;;;;5080994;28;20051;-64
2023/03/21 10:55:27;;;;;;;1.23;1.13;;;25.70;33.50;;;;;;5078325;28;20076;-64
2023/03/21 10:58:17;;;;;;;2.13;1.13;;;25.70;33.60;;;;;;5080386;28;20044;-65
2023/03/21 11:00:47;;;;;;;1.98;1.10;;;25.70;33.70;;;;;;5082792;28;20204;-63
2023/03/21 11:03:24;;;;;;;1.48;1.17;;;25.70;33.50;;;;;;5084023;28;20044;-64
2023/03/21 11:06:08;;;;;;;2.60;1.05;;;25.70;33.30;;;;;;5079596;28;20052;-65
2023/03/21 11:08:50;;;;;;;0.80;0.80;;;25.70;33.10;;;;;;5077997;28;20097;-64
2023/03/21 11:11:26;;;;;;;0.85;0.85;;;25.70;33.00;;;;;;5084100;28;20052;-65
2023/03/21 11:14:05;;;;;;;1.42;1.23;;;25.80;33.00;;;;;;5083238;28;20040;-62
2023/03/21 11:16:43;;;;;;;4.07;1.63;;;25.80;33.00;;;;;;5084983;28;20040;-64
2023/03/21 11:19:25;;;;;;;2.28;0.80;;;25.80;32.80;;;;;;5081824;28;20865;-65
2023/03/21 11:21:55;;;;;;;8.40;1.27;;;25.80;32.60;;;;;;5082375;28;20040;-66
2023/03/21 11:24:22;;;;;;;1.38;0.68;;;25.80;32.50;;;;;;5081553;28;20051;-64
2023/03/21 11:26:50;;;;;;;0.40;0.40;;;25.80;32.50;;;;;;5082690;28;20052;-64
2023/03/21 11:29:34;;;;;;;0.50;0.50;;;25.80;32.60;;;;;;5080701;28;20040;-63
2023/03/21 11:32:22;;;;;;;1.15;0.77;;;25.80;32.40;;;;;;5083486;28;20439;-61
2023/03/21 11:34:56;;;;;;;1.13;0.75;;;25.80;30.60;;;;;;5082208;28;20139;-63
2023/03/21 11:37:32;;;;;;;0.40;0.40;;;25.70;30.00;;;;;;5080580;28;20055;-60
2023/03/21 11:40:22;;;;;;;0.75;0.50;;;25.50;29.50;;;;;;5083005;28;20055;-60
2023/03/21 11:42:53;;;;;;;0.77;0.55;;;25.40;30.00;;;;;;5084223;28;20047;-61
2023/03/21 11:45:24;;;;;;;1.00;0.40;;;25.30;30.20;;;;;;5079468;28;20091;-60
2023/03/21 11:47:57;;;;;;;0.50;0.50;;;25.30;30.60;;;;;;5081588;28;20052;-61
2023/03/21 11:50:31;;;;;;;0.40;0.40;;;25.30;30.70;;;;;;5066542;28;20062;-59
2023/03/21 11:53:34;;;;;;;0.35;0.35;;;25.30;30.80;;;;;;5080584;28;20088;-59
2023/03/21 11:56:32;;;;;;;0.30;0.30;;;25.40;30.90;;;;;;5081647;28;20134;-59
2023/03/21 11:59:36;;;;;;;3.05;0.43;;;25.40;30.90;;;;;;5080720;28;20448;-59
2023/03/21 12:02:33;;;;;;;0.43;0.43;;;25.40;30.90;;;;;;5078499;28;20044;-59
2023/03/21 12:05:12;;;;;;;4.63;0.60;;;25.50;31.50;;;;;;5075607;28;21588;-60
2023/03/21 12:07:55;;;;;;;1.75;0.50;;;25.50;30.80;;;;;;5083657;28;20079;-61
2023/03/21 12:10:49;;;;;;;2.05;0.30;;;25.50;30.70;;;;;;5080234;28;20139;-61
2023/03/21 12:13:42;;;;;;;0.40;0.40;;;25.60;30.80;;;;;;5066416;28;20047;-60
2023/03/21 12:16:47;;;;;;;0.45;0.32;;;25.60;30.70;;;;;;5080063;28;20047;-60
2023/03/21 12:19:54;;;;;;;0.45;0.40;;;25.60;30.60;;;;;;5082775;28;20044;-62
2023/03/21 12:22:37;;;;;;;0.30;0.30;;;25.60;30.60;;;;;;5080880;28;20368;-64
2023/03/21 12:25:18;;;;;;;0.65;0.40;;;25.70;30.50;;;;;;5082359;28;20040;-64
2023/03/21 12:28:21;;;;;;;0.60;0.20;;;25.70;30.50;;;;;;5081487;28;20040;-62
2023/03/21 12:31:24;;;;;;;0.30;0.30;;;25.70;30.50;;;;;;5076846;28;20083;-61
2023/03/21 12:34:17;;;;;;;3.00;1.00;;;25.70;30.50;;;;;;5083397;28;20048;-63
2023/03/21 12:37:16;;;;;;;1.17;0.40;;;25.70;30.70;;;;;;5086582;28;20463;-61
2023/03/21 12:39:47;;;;;;;0.40;0.40;;;25.70;30.70;;;;;;5082620;28;20399;-61
2023/03/21 12:42:45;;;;;;;0.75;0.40;;;25.70;30.80;;;;;;5083101;28;20071;-60
2023/03/21 12:45:20;;;;;;;0.43;0.30;;;25.70;30.80;;;;;;5081521;28;20064;-62
2023/03/21 12:47:52;;;;;;;0.77;0.40;;;25.70;30.90;;;;;;5081064;28;20059;-63
2023/03/21 12:50:25;;;;;;;1.77;0.28;;;25.70;30.90;;;;;;5080025;28;20047;-61
2023/03/21 12:53:03;;;;;;;1.40;0.32;;;25.70;31.00;;;;;;5085711;28;20083;-62
2023/03/21 12:55:34;;;;;;;1.77;0.68;;;25.70;31.10;;;;;;5086572;28;20060;-60
2023/03/21 12:58:17;;;;;;;2.47;0.47;;;25.70;31.00;;;;;;5083499;28;20081;-59
2023/03/21 13:00:50;;;;;;;0.28;0.20;;;25.70;31.10;;;;;;5085569;28;20078;-60
2023/03/21 13:03:28;;;;;;;2.28;0.30;;;25.70;31.20;;;;;;5081330;28;20048;-60
2023/03/21 13:06:08;;;;;;;0.65;0.40;;;25.70;31.20;;;;;;5081863;28;20411;-61
2023/03/21 13:08:54;;;;;;;0.70;0.20;;;25.70;31.20;;;;;;5082729;28;20055;-61
2023/03/21 13:11:26;;;;;;;0.40;0.40;;;25.70;31.20;;;;;;5084508;28;20431;-59
2023/03/21 13:14:06;;;;;;;0.30;0.30;;;25.80;31.40;;;;;;5087233;28;20131;-61
2023/03/21 13:16:48;;;;;;;0.30;0.30;;;25.80;31.40;;;;;;5086394;28;20048;-60
2023/03/21 13:19:30;;;;;;;0.50;0.30;;;25.90;31.30;;;;;;5084635;28;20136;-62
2023/03/21 13:22:14;;;;;;;1.17;0.57;;;25.90;31.40;;;;;;5082682;28;20056;-63
2023/03/21 13:24:48;;;;;;;3.38;0.50;;;25.90;31.40;;;;;;5084114;28;20527;-61